Time;durP1;ratioP1;P1;durP2;ratioP2;P2;SDS_P1;SDS_P2;PMS_P1;PMS_P2;Temp;Humidity;BMP_temperature;BMP_pressure;BME280_temperature;BME280_humidity;BME280_pressure;Samples;Min_cycle;Max_cycle;Signal;HPM_P1;HPM_P2
2023/06/30 00:00:32;;;;;;;4.60;1.60;;;;;;;;;;5009131;28;20490;-69
2023/06/30 00:02:59;;;;;;;4.78;1.55;;;;;;;;;;5013513;28;20104;-69
2023/06/30 00:05:25;;;;;;;4.10;1.60;;;;;;;;;;5013631;28;20034;-69
2023/06/30 00:07:54;;;;;;;5.15;1.67;;;;;;;;;;5013655;28;20433;-69
2023/06/30 00:10:20;;;;;;;3.45;1.40;;;;;;;;;;5013187;28;20085;-69
2023/06/30 00:12:45;;;;;;;3.10;1.45;;;;;;;;;;5013553;28;20066;-70
2023/06/30 00:15:11;;;;;;;3.85;1.42;;;;;;;;;;5012034;28;20129;-69
2023/06/30 00:17:36;;;;;;;2.72;1.40;;;;;;;;;;5012775;28;20465;-70
2023/06/30 00:20:05;;;;;;;3.17;1.55;;;;;;;;;;5013638;28;20038;-69
2023/06/30 00:22:30;;;;;;;4.75;1.92;;;;;;;;;;5011804;28;20508;-69
2023/06/30 00:24:58;;;;;;;6.95;1.80;;;;;;;;;;5012610;28;20046;-69
2023/06/30 00:27:23;;;;;;;4.05;1.55;;;;;;;;;;5009852;28;20042;-69
2023/06/30 00:29:48;;;;;;;5.15;1.42;;;;;;;;;;5009076;28;20034;-69
2023/06/30 00:32:14;;;;;;;2.83;1.52;;;;;;;;;;5010558;28;20037;-70
2023/06/30 00:34:40;;;;;;;8.00;1.45;;;;;;;;;;5011789;28;20091;-69
2023/06/30 00:37:05;;;;;;;4.78;1.48;;;;;;;;;;5013430;28;20041;-70
2023/06/30 00:39:31;;;;;;;2.90;1.27;;;;;;;;;;5011992;28;20042;-69
2023/06/30 00:41:56;;;;;;;5.38;1.67;;;;;;;;;;5011991;28;20433;-69
2023/06/30 00:44:21;;;;;;;6.97;1.50;;;;;;;;;;5012310;28;20042;-69
2023/06/30 00:46:47;;;;;;;9.60;1.50;;;;;;;;;;5012973;28;20042;-69
2023/06/30 00:49:12;;;;;;;4.90;1.40;;;;;;;;;;5013034;28;20044;-69
2023/06/30 00:51:37;;;;;;;4.75;1.70;;;;;;;;;;5011603;28;20065;-69
2023/06/30 00:54:03;;;;;;;3.45;1.42;;;;;;;;;;4995356;28;20061;-69
2023/06/30 00:56:28;;;;;;;4.30;1.70;;;;;;;;;;5012038;28;20045;-69
2023/06/30 00:58:54;;;;;;;4.10;1.65;;;;;;;;;;5012818;28;20041;-69
2023/06/30 01:01:36;;;;;;;2.75;1.48;;;;;;;;;;5009871;28;20478;-69
2023/06/30 01:04:30;;;;;;;5.97;1.83;;;;;;;;;;5012872;28;20363;-69
2023/06/30 01:07:03;;;;;;;1.90;1.05;;;;;;;;;;4997638;28;20465;-69
2023/06/30 01:09:32;;;;;;;3.58;1.63;;;;;;;;;;5011911;28;20046;-69
2023/06/30 01:11:58;;;;;;;3.53;1.63;;;;;;;;;;5011940;28;20042;-69
2023/06/30 01:14:24;;;;;;;4.68;1.40;;;;;;;;;;5011293;28;20053;-69
2023/06/30 01:16:50;;;;;;;3.38;1.45;;;;;;;;;;5012883;28;20409;-69
2023/06/30 01:19:39;;;;;;;3.70;1.40;;;;;;;;;;5006977;28;20088;-69
2023/06/30 01:22:28;;;;;;;4.30;1.50;;;;;;;;;;5012796;28;20125;-69
2023/06/30 01:24:58;;;;;;;7.18;1.67;;;;;;;;;;5009627;28;20042;-71
2023/06/30 01:27:24;;;;;;;6.30;1.50;;;;;;;;;;5011343;28;20053;-69
2023/06/30 01:29:50;;;;;;;2.85;1.77;;;;;;;;;;5011313;28;20038;-69
2023/06/30 01:32:17;;;;;;;3.25;1.38;;;;;;;;;;5011335;28;20058;-69
2023/06/30 01:34:45;;;;;;;3.20;1.50;;;;;;;;;;5012867;28;20124;-69
2023/06/30 01:37:11;;;;;;;2.40;1.45;;;;;;;;;;5014492;28;20061;-70
2023/06/30 01:39:37;;;;;;;4.22;1.67;;;;;;;;;;5011898;28;20041;-69
2023/06/30 01:42:03;;;;;;;3.80;1.55;;;;;;;;;;5012759;28;20037;-69
2023/06/30 01:44:28;;;;;;;3.97;1.70;;;;;;;;;;5014584;28;20034;-69
2023/06/30 01:46:53;;;;;;;3.22;1.52;;;;;;;;;;5014907;28;20038;-69
2023/06/30 01:49:19;;;;;;;5.85;1.65;;;;;;;;;;5014059;28;20383;-69
2023/06/30 01:51:44;;;;;;;6.00;1.50;;;;;;;;;;5015994;28;20054;-69
2023/06/30 01:54:10;;;;;;;7.38;1.80;;;;;;;;;;5015822;28;20049;-69
2023/06/30 01:56:35;;;;;;;4.70;1.60;;;;;;;;;;5014874;28;20046;-69
2023/06/30 01:59:00;;;;;;;4.57;1.67;;;;;;;;;;5014940;28;20104;-69
2023/06/30 02:01:26;;;;;;;3.30;1.65;;;;;;;;;;5015720;28;20046;-69
2023/06/30 02:03:51;;;;;;;4.80;1.83;;;;;;;;;;5014939;28;20180;-69
2023/06/30 02:06:17;;;;;;;3.22;1.42;;;;;;;;;;5014517;28;20046;-69
2023/06/30 02:08:42;;;;;;;4.97;1.98;;;;;;;;;;5015766;28;20049;-69
2023/06/30 02:11:08;;;;;;;6.32;1.60;;;;;;;;;;5012741;28;20038;-69
2023/06/30 02:13:33;;;;;;;5.13;1.77;;;;;;;;;;5014491;28;20049;-69
2023/06/30 02:15:58;;;;;;;7.10;1.98;;;;;;;;;;5013778;28;20049;-69
2023/06/30 02:18:24;;;;;;;9.13;2.03;;;;;;;;;;5012606;28;20034;-69
2023/06/30 02:20:50;;;;;;;4.15;1.80;;;;;;;;;;5015829;28;20030;-69
2023/06/30 02:23:16;;;;;;;6.10;1.90;;;;;;;;;;5014847;28;20385;-69
2023/06/30 02:25:41;;;;;;;7.28;2.03;;;;;;;;;;5014791;28;20030;-69
2023/06/30 02:28:06;;;;;;;4.55;1.60;;;;;;;;;;5013178;28;20029;-69
2023/06/30 02:30:31;;;;;;;5.32;1.45;;;;;;;;;;5015105;28;20088;-69
2023/06/30 02:32:58;;;;;;;4.53;1.70;;;;;;;;;;5015153;28;20084;-69
2023/06/30 02:35:24;;;;;;;5.28;1.83;;;;;;;;;;5013727;28;20440;-69
2023/06/30 02:37:50;;;;;;;4.25;1.70;;;;;;;;;;5046110;28;20445;-69
2023/06/30 02:40:15;;;;;;;4.30;1.63;;;;;;;;;;5015285;28;20045;-69
2023/06/30 02:42:40;;;;;;;5.80;1.70;;;;;;;;;;5010135;28;20065;-69
2023/06/30 02:45:06;;;;;;;3.47;1.58;;;;;;;;;;5015110;28;20049;-69
2023/06/30 02:47:32;;;;;;;3.75;1.60;;;;;;;;;;5013940;28;20048;-69
2023/06/30 02:49:57;;;;;;;7.03;1.77;;;;;;;;;;5014710;28;20065;-69
2023/06/30 02:52:22;;;;;;;2.45;1.42;;;;;;;;;;5014678;28;20501;-69
2023/06/30 02:54:48;;;;;;;6.53;1.60;;;;;;;;;;5015368;28;20045;-69
2023/06/30 02:57:13;;;;;;;3.35;1.33;;;;;;;;;;5014439;28;20068;-69
2023/06/30 02:59:38;;;;;;;5.18;1.88;;;;;;;;;;5014538;28;20057;-69
2023/06/30 03:02:04;;;;;;;3.35;1.45;;;;;;;;;;5014594;28;20087;-69
2023/06/30 03:04:29;;;;;;;2.92;1.40;;;;;;;;;;5014592;28;20034;-69
2023/06/30 03:06:55;;;;;;;2.88;1.45;;;;;;;;;;5014740;28;20061;-69
2023/06/30 03:09:20;;;;;;;3.25;1.65;;;;;;;;;;5014716;28;20083;-69
2023/06/30 03:11:45;;;;;;;4.28;1.58;;;;;;;;;;5015091;28;20041;-69
2023/06/30 03:14:11;;;;;;;3.40;1.40;;;;;;;;;;5014136;28;20026;-69
2023/06/30 03:16:36;;;;;;;3.35;1.80;;;;;;;;;;5014025;28;20124;-69
2023/06/30 03:19:02;;;;;;;7.75;1.40;;;;;;;;;;5014338;28;20072;-69
2023/06/30 03:21:46;;;;;;;5.28;1.40;;;;;;;;;;5014574;28;20049;-69
2023/06/30 03:24:11;;;;;;;3.03;1.70;;;;;;;;;;5010916;28;20033;-69
2023/06/30 03:26:36;;;;;;;6.28;1.67;;;;;;;;;;5013107;28;20117;-69
2023/06/30 03:29:02;;;;;;;4.30;1.58;;;;;;;;;;5010368;28;20123;-69
2023/06/30 03:31:27;;;;;;;3.25;1.75;;;;;;;;;;5014192;28;20046;-69
2023/06/30 03:33:52;;;;;;;6.55;1.60;;;;;;;;;;5014201;28;20041;-69
2023/06/30 03:36:18;;;;;;;2.75;1.35;;;;;;;;;;5012727;28;20092;-69
2023/06/30 03:38:43;;;;;;;2.10;1.13;;;;;;;;;;5013676;28;20034;-69
2023/06/30 03:41:08;;;;;;;4.40;1.58;;;;;;;;;;5013740;28;20548;-69
2023/06/30 03:43:34;;;;;;;3.38;1.20;;;;;;;;;;5013875;28;20041;-69
2023/06/30 03:45:59;;;;;;;2.95;1.50;;;;;;;;;;5014082;28;20030;-69
2023/06/30 03:48:24;;;;;;;4.43;1.40;;;;;;;;;;5011291;28;20124;-69
2023/06/30 03:50:53;;;;;;;5.30;1.52;;;;;;;;;;5013728;28;20497;-69
2023/06/30 03:53:19;;;;;;;2.20;1.30;;;;;;;;;;5013756;28;20029;-69
2023/06/30 03:55:44;;;;;;;2.13;1.10;;;;;;;;;;5013930;28;20470;-69
2023/06/30 03:58:09;;;;;;;2.45;1.25;;;;;;;;;;5011994;28;20125;-69
2023/06/30 04:00:35;;;;;;;2.70;1.30;;;;;;;;;;5012588;28;20045;-69
2023/06/30 04:03:00;;;;;;;1.80;0.98;;;;;;;;;;5013236;28;20042;-69
2023/06/30 04:05:26;;;;;;;2.63;1.25;;;;;;;;;;5013586;28;20118;-69
2023/06/30 04:07:51;;;;;;;6.40;1.33;;;;;;;;;;5013203;28;20034;-69
2023/06/30 04:10:16;;;;;;;6.70;1.50;;;;;;;;;;5013687;28;20095;-69
2023/06/30 04:12:42;;;;;;;2.70;1.33;;;;;;;;;;5012755;28;20072;-69
2023/06/30 04:15:10;;;;;;;5.10;1.42;;;;;;;;;;5012036;28;20029;-69
2023/06/30 04:17:35;;;;;;;3.72;1.42;;;;;;;;;;5011812;28;20437;-69
2023/06/30 04:20:03;;;;;;;2.55;0.93;;;;;;;;;;5013807;28;20169;-69
2023/06/30 04:22:28;;;;;;;5.45;1.85;;;;;;;;;;5005795;28;20389;-69
2023/06/30 04:24:53;;;;;;;2.33;1.00;;;;;;;;;;5013109;28;20075;-69
2023/06/30 04:27:19;;;;;;;4.00;1.00;;;;;;;;;;5013062;28;20050;-69
2023/06/30 04:29:44;;;;;;;2.95;1.35;;;;;;;;;;5013254;28;20044;-69
2023/06/30 04:32:09;;;;;;;3.85;1.38;;;;;;;;;;5013336;28;20041;-69
2023/06/30 04:34:35;;;;;;;3.72;1.10;;;;;;;;;;5013142;28;20045;-69
2023/06/30 04:37:00;;;;;;;3.28;1.20;;;;;;;;;;5013431;28;20036;-68
2023/06/30 04:39:25;;;;;;;1.90;1.00;;;;;;;;;;5011375;28;20064;-69
2023/06/30 04:41:51;;;;;;;2.22;1.05;;;;;;;;;;5013339;28;20038;-69
2023/06/30 04:44:16;;;;;;;3.55;1.13;;;;;;;;;;5012785;28;20558;-69
2023/06/30 04:46:41;;;;;;;1.55;0.90;;;;;;;;;;5012582;28;20164;-69
2023/06/30 04:49:07;;;;;;;3.30;1.10;;;;;;;;;;5013123;28;20038;-69
2023/06/30 04:51:32;;;;;;;3.50;1.05;;;;;;;;;;5013137;28;20030;-69
2023/06/30 04:53:58;;;;;;;3.08;1.13;;;;;;;;;;5012769;28;20042;-69
2023/06/30 04:56:23;;;;;;;1.95;1.00;;;;;;;;;;5013223;28;20415;-69
2023/06/30 04:58:50;;;;;;;1.70;1.10;;;;;;;;;;5012490;28;20534;-69
2023/06/30 05:01:15;;;;;;;3.45;1.33;;;;;;;;;;5012104;28;20125;-69
2023/06/30 05:03:41;;;;;;;2.40;1.20;;;;;;;;;;5008426;28;20426;-69
2023/06/30 05:06:06;;;;;;;3.40;1.10;;;;;;;;;;5013135;28;20037;-69
2023/06/30 05:08:31;;;;;;;2.33;1.08;;;;;;;;;;5013027;28;20045;-69
2023/06/30 05:10:57;;;;;;;1.95;0.95;;;;;;;;;;5008193;28;20038;-69
2023/06/30 05:13:24;;;;;;;4.38;1.30;;;;;;;;;;5016567;28;20025;-69
2023/06/30 05:15:50;;;;;;;2.80;1.20;;;;;;;;;;5016710;28;20164;-69
2023/06/30 05:18:15;;;;;;;2.45;1.23;;;;;;;;;;5015310;28;20557;-69
2023/06/30 05:20:40;;;;;;;2.25;1.00;;;;;;;;;;5016649;28;20605;-69
2023/06/30 05:23:06;;;;;;;2.70;1.05;;;;;;;;;;5015221;28;20034;-69
2023/06/30 05:25:31;;;;;;;3.75;1.10;;;;;;;;;;5016685;28;20571;-70
2023/06/30 05:27:57;;;;;;;4.10;1.23;;;;;;;;;;5015342;28;20029;-69
2023/06/30 05:30:22;;;;;;;2.35;1.13;;;;;;;;;;5015093;28;20037;-69
2023/06/30 05:32:47;;;;;;;3.05;1.10;;;;;;;;;;5014551;28;20376;-69
2023/06/30 05:35:13;;;;;;;4.50;1.15;;;;;;;;;;5016385;28;20406;-69
2023/06/30 05:37:38;;;;;;;2.65;1.10;;;;;;;;;;5014375;28;20062;-69
2023/06/30 05:40:04;;;;;;;3.53;1.38;;;;;;;;;;5013062;28;20032;-69
2023/06/30 05:42:29;;;;;;;2.67;1.00;;;;;;;;;;5015502;28;20481;-70
2023/06/30 05:44:55;;;;;;;5.07;1.33;;;;;;;;;;5015789;28;20112;-70
2023/06/30 05:47:20;;;;;;;4.60;1.20;;;;;;;;;;5016268;28;20113;-69
2023/06/30 05:49:46;;;;;;;3.05;1.17;;;;;;;;;;5016244;28;20029;-69
2023/06/30 05:52:11;;;;;;;3.92;1.20;;;;;;;;;;5016028;28;20042;-70
2023/06/30 05:54:37;;;;;;;2.15;1.10;;;;;;;;;;5015943;28;20048;-69
2023/06/30 05:57:02;;;;;;;2.25;0.90;;;;;;;;;;5014512;28;20437;-70
2023/06/30 05:59:28;;;;;;;2.95;1.20;;;;;;;;;;5016242;28;20061;-69
2023/06/30 06:01:54;;;;;;;2.80;1.05;;;;;;;;;;5014651;28;20076;-70
2023/06/30 06:04:20;;;;;;;2.13;0.90;;;;;;;;;;5014369;28;20034;-69
2023/06/30 06:06:45;;;;;;;3.20;1.23;;;;;;;;;;5015422;28;20045;-69
2023/06/30 06:09:10;;;;;;;4.00;1.10;;;;;;;;;;5015430;28;20038;-69
2023/06/30 06:11:36;;;;;;;3.83;1.30;;;;;;;;;;5015633;28;20034;-69
2023/06/30 06:14:01;;;;;;;3.05;1.17;;;;;;;;;;5015677;28;20053;-69
2023/06/30 06:16:26;;;;;;;5.78;1.00;;;;;;;;;;5015802;28;20120;-69
2023/06/30 06:18:52;;;;;;;2.63;1.17;;;;;;;;;;5013743;28;20088;-69
2023/06/30 06:21:17;;;;;;;2.25;1.17;;;;;;;;;;5015726;28;20053;-69
2023/06/30 06:23:43;;;;;;;2.58;1.08;;;;;;;;;;5014384;28;20482;-70
2023/06/30 06:26:08;;;;;;;4.35;1.30;;;;;;;;;;5014338;28;20029;-70
2023/06/30 06:28:33;;;;;;;4.45;1.50;;;;;;;;;;4993556;28;20100;-70
2023/06/30 06:30:59;;;;;;;3.60;1.33;;;;;;;;;;5008442;28;20042;-70
2023/06/30 06:33:24;;;;;;;3.25;1.40;;;;;;;;;;5012440;28;20033;-70
2023/06/30 06:35:53;;;;;;;2.95;1.50;;;;;;;;;;4998644;28;20441;-69
2023/06/30 06:38:19;;;;;;;7.22;2.17;;;;;;;;;;5007469;28;20533;-70
2023/06/30 06:40:45;;;;;;;9.65;1.80;;;;;;;;;;5011534;28;20117;-69
2023/06/30 06:43:11;;;;;;;5.82;2.10;;;;;;;;;;5010478;28;21030;-69
2023/06/30 06:45:36;;;;;;;4.63;1.50;;;;;;;;;;5011948;28;20092;-70
2023/06/30 06:48:24;;;;;;;10.23;2.00;;;;;;;;;;5011950;28;20076;-70
2023/06/30 06:50:59;;;;;;;8.65;1.70;;;;;;;;;;5011693;28;20065;-70
2023/06/30 06:53:28;;;;;;;8.10;1.70;;;;;;;;;;5012892;28;20538;-69
2023/06/30 06:55:55;;;;;;;8.50;1.98;;;;;;;;;;5012738;28;20048;-70
2023/06/30 06:58:24;;;;;;;10.93;1.77;;;;;;;;;;4993232;28;20410;-70
2023/06/30 07:00:51;;;;;;;6.93;1.60;;;;;;;;;;5014111;28;20048;-70
2023/06/30 07:03:17;;;;;;;4.85;1.40;;;;;;;;;;5011989;28;20034;-70
2023/06/30 07:05:45;;;;;;;4.97;1.30;;;;;;;;;;5014101;28;20038;-70
2023/06/30 07:08:12;;;;;;;7.05;1.40;;;;;;;;;;5014181;28;20409;-69
2023/06/30 07:10:37;;;;;;;10.40;1.65;;;;;;;;;;5014216;28;20048;-70
2023/06/30 07:13:03;;;;;;;4.80;1.45;;;;;;;;;;5014359;28;20026;-69
2023/06/30 07:15:28;;;;;;;8.63;2.20;;;;;;;;;;5013142;28;20029;-69
2023/06/30 07:17:54;;;;;;;8.77;1.98;;;;;;;;;;5011859;28;20402;-69
2023/06/30 07:20:19;;;;;;;9.45;1.70;;;;;;;;;;5014139;28;20044;-69
2023/06/30 07:22:45;;;;;;;10.05;2.58;;;;;;;;;;5013916;28;20069;-69
2023/06/30 07:25:10;;;;;;;7.18;1.92;;;;;;;;;;5013894;28;20120;-70
2023/06/30 07:27:37;;;;;;;5.72;2.17;;;;;;;;;;5012491;28;20489;-70
2023/06/30 07:30:03;;;;;;;7.18;1.63;;;;;;;;;;5013870;28;20029;-70
2023/06/30 07:32:30;;;;;;;6.93;2.78;;;;;;;;;;5013521;28;20539;-70
2023/06/30 07:34:55;;;;;;;9.18;2.00;;;;;;;;;;5012380;28;20087;-69
2023/06/30 07:37:21;;;;;;;5.22;1.20;;;;;;;;;;5013857;28;20116;-69
2023/06/30 07:39:46;;;;;;;13.10;1.77;;;;;;;;;;5013843;28;20489;-69
2023/06/30 07:42:11;;;;;;;6.00;1.50;;;;;;;;;;5013571;28;20481;-70
2023/06/30 07:44:37;;;;;;;5.32;1.60;;;;;;;;;;5013930;28;20090;-70
2023/06/30 07:47:02;;;;;;;4.03;1.40;;;;;;;;;;5013204;28;20034;-69
2023/06/30 07:49:28;;;;;;;12.20;2.03;;;;;;;;;;5013467;28;20039;-69
2023/06/30 07:51:53;;;;;;;5.78;1.75;;;;;;;;;;5011566;28;20040;-70
2023/06/30 07:54:19;;;;;;;12.10;1.55;;;;;;;;;;5013705;28;20100;-69
2023/06/30 07:56:46;;;;;;;8.80;2.00;;;;;;;;;;5013363;28;20080;-70
2023/06/30 07:59:12;;;;;;;11.63;2.38;;;;;;;;;;5013659;28;20056;-69
2023/06/30 08:01:37;;;;;;;10.80;1.73;;;;;;;;;;5013350;28;20042;-70
2023/06/30 08:04:03;;;;;;;10.13;1.83;;;;;;;;;;5012865;28;20069;-70
2023/06/30 08:06:28;;;;;;;9.57;1.85;;;;;;;;;;5013180;28;20041;-70
2023/06/30 08:08:53;;;;;;;8.70;1.50;;;;;;;;;;5013403;28;20057;-70
2023/06/30 08:11:19;;;;;;;10.38;2.40;;;;;;;;;;5013353;28;20037;-70
2023/06/30 08:13:44;;;;;;;9.10;1.80;;;;;;;;;;5013334;28;20053;-70
2023/06/30 08:16:10;;;;;;;8.80;1.58;;;;;;;;;;5013126;28;20054;-70
2023/06/30 08:18:35;;;;;;;9.45;1.90;;;;;;;;;;5013613;28;20061;-70
2023/06/30 08:21:02;;;;;;;7.20;1.27;;;;;;;;;;5013277;28;20677;-70
2023/06/30 08:23:27;;;;;;;11.15;1.70;;;;;;;;;;5009928;28;20048;-70
2023/06/30 08:25:54;;;;;;;10.18;2.80;;;;;;;;;;5013072;28;20034;-70
2023/06/30 08:28:20;;;;;;;7.50;2.13;;;;;;;;;;5012837;28;20482;-70
2023/06/30 08:30:45;;;;;;;5.38;1.63;;;;;;;;;;5012678;28;20041;-70
2023/06/30 08:33:11;;;;;;;7.45;1.85;;;;;;;;;;5010915;28;20372;-70
2023/06/30 08:35:36;;;;;;;9.23;1.85;;;;;;;;;;5013017;28;20088;-70
2023/06/30 08:38:01;;;;;;;6.85;1.75;;;;;;;;;;5013019;28;20444;-70
2023/06/30 08:40:30;;;;;;;10.73;1.90;;;;;;;;;;5012541;28;20034;-70
2023/06/30 08:42:58;;;;;;;7.07;1.90;;;;;;;;;;5009945;28;20034;-70
2023/06/30 08:45:28;;;;;;;10.50;1.75;;;;;;;;;;5012948;28;20042;-70
2023/06/30 08:47:55;;;;;;;6.65;1.77;;;;;;;;;;5014653;28;20084;-70
2023/06/30 08:50:21;;;;;;;5.38;1.48;;;;;;;;;;5016755;28;20116;-71
2023/06/30 08:52:47;;;;;;;9.43;1.35;;;;;;;;;;5039233;28;20074;-70
2023/06/30 08:55:13;;;;;;;4.03;1.40;;;;;;;;;;5006440;28;20780;-70
2023/06/30 08:57:41;;;;;;;7.70;1.60;;;;;;;;;;5016755;28;20037;-70
2023/06/30 09:00:07;;;;;;;7.93;2.05;;;;;;;;;;5015273;28;20054;-70
2023/06/30 09:02:32;;;;;;;8.07;1.83;;;;;;;;;;5016668;28;20034;-70
2023/06/30 09:04:58;;;;;;;8.77;1.98;;;;;;;;;;5015527;28;20080;-70
2023/06/30 09:07:26;;;;;;;7.13;1.58;;;;;;;;;;5016222;28;20081;-70
2023/06/30 09:09:54;;;;;;;10.00;1.77;;;;;;;;;;5014836;28;20030;-70
2023/06/30 09:12:19;;;;;;;5.57;1.65;;;;;;;;;;5015550;28;20362;-70
2023/06/30 09:14:46;;;;;;;8.80;1.90;;;;;;;;;;5015405;28;20164;-70
2023/06/30 09:17:11;;;;;;;10.38;1.73;;;;;;;;;;5015120;28;20074;-70
2023/06/30 09:19:37;;;;;;;8.32;1.67;;;;;;;;;;5015414;28;20064;-71
2023/06/30 09:22:05;;;;;;;8.65;1.60;;;;;;;;;;5016375;28;20048;-70
2023/06/30 09:24:30;;;;;;;7.40;1.58;;;;;;;;;;5016615;28;20042;-70
2023/06/30 09:26:55;;;;;;;9.57;1.60;;;;;;;;;;5016186;28;20075;-70
2023/06/30 09:29:21;;;;;;;9.15;1.73;;;;;;;;;;5015006;28;20038;-70
2023/06/30 09:31:50;;;;;;;9.38;1.70;;;;;;;;;;5014921;28;20038;-70
2023/06/30 09:34:15;;;;;;;6.18;1.75;;;;;;;;;;5015207;28;20026;-70
2023/06/30 09:36:50;;;;;;;5.15;1.35;;;;;;;;;;5015952;28;20496;-70
2023/06/30 09:39:16;;;;;;;9.60;2.05;;;;;;;;;;5016169;28;20030;-70
2023/06/30 09:41:45;;;;;;;8.02;2.00;;;;;;;;;;5015928;28;20037;-69
2023/06/30 09:44:12;;;;;;;4.78;1.40;;;;;;;;;;5016369;28;20018;-70
2023/06/30 09:46:47;;;;;;;6.13;1.58;;;;;;;;;;5014707;28;20099;-70
2023/06/30 09:49:32;;;;;;;4.68;1.50;;;;;;;;;;5015849;28;20088;-70
2023/06/30 09:51:59;;;;;;;5.82;1.60;;;;;;;;;;5014353;28;20084;-69
2023/06/30 09:54:26;;;;;;;4.65;1.35;;;;;;;;;;5014700;28;20042;-70
2023/06/30 09:56:58;;;;;;;7.97;1.77;;;;;;;;;;5012056;28;20061;-70
2023/06/30 09:59:23;;;;;;;3.50;1.23;;;;;;;;;;4994709;28;20137;-70
2023/06/30 10:01:54;;;;;;;7.03;2.08;;;;;;;;;;5014301;28;20120;-69
2023/06/30 10:04:20;;;;;;;5.70;1.70;;;;;;;;;;5014180;28;20478;-70
2023/06/30 10:06:46;;;;;;;4.30;1.40;;;;;;;;;;5015797;28;20068;-69
2023/06/30 10:09:12;;;;;;;6.75;1.40;;;;;;;;;;5015402;28;20040;-69
2023/06/30 10:11:38;;;;;;;4.70;1.40;;;;;;;;;;5013909;28;20034;-69
2023/06/30 10:14:03;;;;;;;6.90;1.40;;;;;;;;;;5012282;28;20070;-69
2023/06/30 10:16:29;;;;;;;2.97;1.33;;;;;;;;;;5014272;28;20080;-69
2023/06/30 10:18:56;;;;;;;4.60;1.50;;;;;;;;;;5015275;28;20034;-69
2023/06/30 10:21:21;;;;;;;4.57;1.35;;;;;;;;;;5014069;28;20125;-69
2023/06/30 10:23:48;;;;;;;4.47;1.70;;;;;;;;;;5015181;28;20116;-69
2023/06/30 10:26:14;;;;;;;7.00;1.25;;;;;;;;;;5013399;28;20026;-69
2023/06/30 10:28:40;;;;;;;6.53;1.50;;;;;;;;;;5014051;28;20042;-69
2023/06/30 10:31:06;;;;;;;6.90;1.58;;;;;;;;;;5014987;28;20501;-70
2023/06/30 10:33:31;;;;;;;6.35;1.73;;;;;;;;;;5013723;28;20030;-69
2023/06/30 10:35:59;;;;;;;5.72;1.40;;;;;;;;;;5013741;28;20038;-69
2023/06/30 10:38:25;;;;;;;3.97;1.35;;;;;;;;;;5013918;28;20115;-69
2023/06/30 10:41:13;;;;;;;3.92;1.20;;;;;;;;;;5004114;28;20069;-70
2023/06/30 10:44:05;;;;;;;3.25;1.20;;;;;;;;;;5008859;28;20068;-69
2023/06/30 10:46:50;;;;;;;4.10;1.20;;;;;;;;;;5013478;28;20037;-69
2023/06/30 10:49:20;;;;;;;3.60;1.23;;;;;;;;;;5013380;28;20044;-69
2023/06/30 10:51:48;;;;;;;4.85;1.15;;;;;;;;;;5012369;28;20029;-69
2023/06/30 10:54:21;;;;;;;4.28;1.40;;;;;;;;;;5011273;28;20125;-70
2023/06/30 10:56:47;;;;;;;3.05;0.90;;;;;;;;;;5013697;28;20052;-69
2023/06/30 10:59:20;;;;;;;2.78;1.20;;;;;;;;;;5009227;28;20129;-69
2023/06/30 11:02:04;;;;;;;;;;;;;;;;;;5013545;28;20045;-69
2023/06/30 11:04:36;;;;;;;2.22;0.93;;;;;;;;;;5006349;28;20365;-69
2023/06/30 11:07:02;;;;;;;1.65;0.80;;;;;;;;;;5012819;28;20079;-69
2023/06/30 11:09:48;;;;;;;2.28;0.80;;;;;;;;;;5009753;28;20466;-69
2023/06/30 11:12:20;;;;;;;1.85;0.60;;;;;;;;;;5009214;28;20479;-69
2023/06/30 11:14:58;;;;;;;2.78;0.82;;;;;;;;;;4995851;28;20116;-70
2023/06/30 11:17:24;;;;;;;1.80;0.60;;;;;;;;;;5003363;28;20045;-70
2023/06/30 11:20:12;;;;;;;1.52;0.60;;;;;;;;;;5006559;28;20124;-69
2023/06/30 11:22:39;;;;;;;1.17;0.50;;;;;;;;;;5011204;28;20052;-70
2023/06/30 11:25:10;;;;;;;1.50;0.77;;;;;;;;;;5013390;28;20034;-69
2023/06/30 11:27:36;;;;;;;3.03;1.10;;;;;;;;;;5011902;28;20030;-69
2023/06/30 11:30:02;;;;;;;2.55;1.30;;;;;;;;;;5043112;28;20533;-69
2023/06/30 11:32:32;;;;;;;1.60;0.80;;;;;;;;;;5013068;28;20030;-69
2023/06/30 11:34:59;;;;;;;1.30;0.75;;;;;;;;;;5012120;28;20038;-70
2023/06/30 11:37:25;;;;;;;1.67;0.80;;;;;;;;;;5013242;28;20430;-69
2023/06/30 11:39:56;;;;;;;2.38;0.90;;;;;;;;;;5012797;28;20112;-69
2023/06/30 11:42:22;;;;;;;1.65;0.80;;;;;;;;;;5005249;28;20037;-70
2023/06/30 11:44:51;;;;;;;3.03;1.00;;;;;;;;;;5011078;28;20100;-69
2023/06/30 11:47:17;;;;;;;1.15;0.82;;;;;;;;;;5012404;28;20091;-69
2023/06/30 11:49:42;;;;;;;1.98;0.77;;;;;;;;;;5013111;28;20040;-70
2023/06/30 11:52:09;;;;;;;2.03;0.73;;;;;;;;;;5005128;28;20037;-70
2023/06/30 11:54:35;;;;;;;1.95;0.70;;;;;;;;;;5011013;28;20096;-69
2023/06/30 11:57:01;;;;;;;0.82;0.50;;;;;;;;;;5011226;28;20026;-69
2023/06/30 11:59:26;;;;;;;1.75;0.82;;;;;;;;;;5007842;28;20119;-69
2023/06/30 12:01:52;;;;;;;2.15;0.90;;;;;;;;;;5005492;28;20030;-70
2023/06/30 12:04:18;;;;;;;1.80;0.80;;;;;;;;;;5001846;28;20033;-69
2023/06/30 12:06:46;;;;;;;1.48;0.70;;;;;;;;;;5004905;28;20077;-69
2023/06/30 12:09:12;;;;;;;1.60;0.68;;;;;;;;;;4996403;28;21549;-69
2023/06/30 12:11:46;;;;;;;0.90;0.60;;;;;;;;;;5006978;28;20026;-69
2023/06/30 12:14:15;;;;;;;1.10;0.70;;;;;;;;;;5005073;28;20084;-70
2023/06/30 12:16:41;;;;;;;1.80;0.60;;;;;;;;;;5004241;28;20124;-70
2023/06/30 12:19:08;;;;;;;1.67;0.82;;;;;;;;;;4996866;28;20042;-70
2023/06/30 12:21:34;;;;;;;0.80;0.57;;;;;;;;;;5026149;28;20043;-69
2023/06/30 12:24:00;;;;;;;1.70;0.60;;;;;;;;;;5008437;28;20107;-70
2023/06/30 12:26:26;;;;;;;0.77;0.50;;;;;;;;;;5008474;28;20041;-69
2023/06/30 12:28:51;;;;;;;1.00;0.60;;;;;;;;;;4999252;28;20395;-70
2023/06/30 12:31:16;;;;;;;1.23;0.63;;;;;;;;;;4997745;28;20390;-70
2023/06/30 12:33:53;;;;;;;0.80;0.60;;;;;;;;;;5000572;28;20042;-69
2023/06/30 12:36:20;;;;;;;0.90;0.60;;;;;;;;;;5002791;28;20538;-69
2023/06/30 12:38:45;;;;;;;0.90;0.60;;;;;;;;;;4998632;28;20041;-69
2023/06/30 12:41:11;;;;;;;1.05;0.77;;;;;;;;;;5001994;28;20423;-70
2023/06/30 12:43:36;;;;;;;1.65;0.57;;;;;;;;;;5012065;28;20389;-69
2023/06/30 12:46:01;;;;;;;1.10;0.60;;;;;;;;;;5011601;28;20173;-69
2023/06/30 12:48:27;;;;;;;0.88;0.55;;;;;;;;;;5012108;28;20057;-69
2023/06/30 12:50:56;;;;;;;1.40;0.68;;;;;;;;;;5004535;28;20044;-70
2023/06/30 12:53:21;;;;;;;0.68;0.52;;;;;;;;;;5012229;28;20042;-70
2023/06/30 12:55:46;;;;;;;0.95;0.57;;;;;;;;;;5011542;28;20038;-69
2023/06/30 12:58:12;;;;;;;1.02;0.60;;;;;;;;;;5011907;28;20056;-70
2023/06/30 13:00:37;;;;;;;2.03;0.80;;;;;;;;;;5009287;28;20058;-69
2023/06/30 13:03:03;;;;;;;1.23;0.70;;;;;;;;;;5011243;28;20417;-69
2023/06/30 13:05:28;;;;;;;2.90;0.90;;;;;;;;;;5010783;28;20040;-69
2023/06/30 13:07:53;;;;;;;0.90;0.60;;;;;;;;;;5011658;28;20125;-69
2023/06/30 13:10:19;;;;;;;1.75;0.63;;;;;;;;;;5012015;28;20033;-69
2023/06/30 13:12:45;;;;;;;1.50;0.75;;;;;;;;;;5012211;28;20084;-69
2023/06/30 13:15:10;;;;;;;2.58;0.88;;;;;;;;;;5011087;28;20042;-69
2023/06/30 13:17:36;;;;;;;1.05;0.70;;;;;;;;;;5010685;28;20053;-69
2023/06/30 13:20:04;;;;;;;2.53;1.00;;;;;;;;;;5012109;28;20049;-69
2023/06/30 13:22:29;;;;;;;2.33;0.70;;;;;;;;;;5011850;28;20046;-69
2023/06/30 13:24:55;;;;;;;2.15;0.80;;;;;;;;;;5012125;28;20033;-69
2023/06/30 13:27:21;;;;;;;2.03;0.93;;;;;;;;;;5011559;28;20038;-69
2023/06/30 13:29:47;;;;;;;1.83;0.93;;;;;;;;;;5011180;28;20030;-69
2023/06/30 13:32:13;;;;;;;1.50;0.88;;;;;;;;;;5010818;28;20397;-69
2023/06/30 13:34:39;;;;;;;1.65;0.90;;;;;;;;;;5015561;28;20045;-69
2023/06/30 13:37:04;;;;;;;1.52;0.80;;;;;;;;;;5014851;28;20037;-70
2023/06/30 13:39:30;;;;;;;1.83;0.90;;;;;;;;;;5015336;28;20042;-69
2023/06/30 13:41:55;;;;;;;1.67;0.80;;;;;;;;;;5015340;28;20038;-69
2023/06/30 13:44:21;;;;;;;1.80;0.90;;;;;;;;;;5015239;28;20041;-69
2023/06/30 13:46:46;;;;;;;2.33;0.90;;;;;;;;;;5013179;28;20465;-69
2023/06/30 13:49:12;;;;;;;1.92;1.08;;;;;;;;;;5014995;28;20529;-69
2023/06/30 13:51:37;;;;;;;4.55;0.90;;;;;;;;;;5014136;28;20038;-69
2023/06/30 13:54:03;;;;;;;2.05;0.80;;;;;;;;;;5015302;28;20042;-69
2023/06/30 13:56:28;;;;;;;2.97;0.88;;;;;;;;;;5014392;28;20497;-69
2023/06/30 13:58:53;;;;;;;3.30;1.08;;;;;;;;;;5014934;28;20053;-70
2023/06/30 14:01:19;;;;;;;5.95;1.00;;;;;;;;;;5014993;28;20117;-69
2023/06/30 14:03:48;;;;;;;1.98;0.77;;;;;;;;;;5014894;28;20085;-69
2023/06/30 14:06:16;;;;;;;3.35;1.20;;;;;;;;;;5014913;28;20057;-69
2023/06/30 14:08:41;;;;;;;2.22;0.98;;;;;;;;;;5009430;28;20038;-69
2023/06/30 14:11:06;;;;;;;1.88;0.88;;;;;;;;;;5013214;28;20074;-69
2023/06/30 14:13:32;;;;;;;3.47;0.90;;;;;;;;;;5014763;28;20073;-69
2023/06/30 14:15:57;;;;;;;1.27;0.73;;;;;;;;;;5014404;28;20485;-70
2023/06/30 14:18:22;;;;;;;1.80;0.70;;;;;;;;;;5014262;28;20046;-69
2023/06/30 14:20:48;;;;;;;3.20;0.90;;;;;;;;;;5014494;28;20397;-69
2023/06/30 14:23:13;;;;;;;1.88;0.90;;;;;;;;;;5014362;28;20332;-69
2023/06/30 14:25:38;;;;;;;5.10;0.90;;;;;;;;;;5013751;28;20038;-69
2023/06/30 14:28:04;;;;;;;2.55;0.90;;;;;;;;;;5010202;28;20724;-69
2023/06/30 14:30:31;;;;;;;2.25;0.90;;;;;;;;;;5009265;28;20467;-70
2023/06/30 14:33:00;;;;;;;8.35;1.00;;;;;;;;;;5014347;28;20046;-69
2023/06/30 14:35:26;;;;;;;1.95;0.68;;;;;;;;;;5007353;28;20033;-70
2023/06/30 14:37:52;;;;;;;2.03;0.82;;;;;;;;;;5013452;28;20478;-69
2023/06/30 14:40:18;;;;;;;6.43;1.20;;;;;;;;;;5010344;28;20144;-69